createdAt,value
2023-02-11T00:02:00.956Z,46.80
2023-02-11T00:04:28.978Z,44.80
2023-02-11T00:06:56.925Z,38.47
2023-02-11T00:09:24.885Z,40.97
2023-02-11T00:11:52.856Z,43.63
2023-02-11T00:14:20.793Z,41.20
2023-02-11T00:16:48.895Z,45.57
2023-02-11T00:19:18.246Z,41.17
2023-02-11T00:21:46.177Z,40.53
2023-02-11T00:24:14.209Z,39.37
2023-02-11T00:26:42.206Z,42.70
2023-02-11T00:29:11.775Z,41.63
2023-02-11T00:31:39.859Z,48.50
2023-02-11T00:34:07.911Z,40.23
2023-02-11T00:36:37.569Z,41.37
2023-02-11T00:39:05.616Z,44.77
2023-02-11T00:41:34.002Z,44.00
2023-02-11T00:44:02.599Z,45.50
2023-02-11T00:46:30.731Z,43.77
2023-02-11T00:48:58.732Z,48.83
2023-02-11T00:51:27.213Z,42.33
2023-02-11T00:53:56.556Z,42.40
2023-02-11T00:56:24.551Z,43.57
2023-02-11T00:58:53.336Z,45.10
2023-02-11T01:01:21.491Z,49.07
2023-02-11T01:03:49.478Z,44.90
2023-02-11T01:06:17.535Z,45.00
2023-02-11T01:08:45.970Z,43.70
2023-02-11T01:11:17.469Z,46.50
2023-02-11T01:13:45.780Z,40.80
2023-02-11T01:16:14.298Z,41.63
2023-02-11T01:18:44.299Z,47.93
2023-02-11T01:21:12.338Z,37.90
2023-02-11T01:23:40.495Z,42.90
2023-02-11T01:26:08.647Z,44.23
2023-02-11T01:28:38.024Z,42.27
2023-02-11T01:31:06.187Z,46.13
2023-02-11T01:33:34.579Z,43.33
2023-02-11T01:36:03.679Z,46.47
2023-02-11T01:38:31.907Z,36.33
2023-02-11T01:41:02.467Z,42.00
2023-02-11T01:43:33.914Z,46.37
2023-02-11T01:46:14.761Z,46.63
2023-02-11T01:48:45.670Z,49.80
2023-02-11T01:51:17.799Z,40.13
2023-02-11T01:54:04.820Z,50.73
2023-02-11T01:56:51.925Z,38.30
2023-02-11T01:59:23.954Z,45.23
2023-02-11T02:01:58.119Z,51.63
2023-02-11T02:04:34.089Z,46.03
2023-02-11T02:07:07.344Z,44.53
2023-02-11T02:09:40.534Z,52.43
2023-02-11T02:12:08.567Z,45.53
2023-02-11T02:14:40.326Z,48.03
2023-02-11T02:17:27.363Z,55.00
2023-02-11T02:20:16.212Z,53.73
2023-02-11T02:23:08.341Z,52.40
2023-02-11T02:25:57.861Z,54.13
2023-02-11T02:29:08.041Z,45.13
2023-02-11T02:31:54.217Z,53.93
2023-02-11T02:34:31.678Z,47.97
2023-02-11T02:37:05.446Z,60.03
2023-02-11T02:39:36.449Z,44.50
2023-02-11T02:42:06.036Z,43.07
2023-02-11T02:44:34.724Z,51.53
2023-02-11T02:47:02.789Z,46.27
2023-02-11T02:49:32.089Z,57.23
2023-02-11T02:52:11.033Z,51.30
2023-02-11T02:55:08.684Z,46.43
2023-02-11T02:57:47.956Z,54.50
2023-02-11T03:00:25.034Z,46.20
2023-02-11T03:03:08.951Z,47.70
2023-02-11T03:05:49.577Z,46.83
2023-02-11T03:08:24.255Z,48.43
2023-02-11T03:10:53.860Z,43.03
2023-02-11T03:13:28.175Z,59.63
2023-02-11T03:15:59.612Z,56.63
2023-02-11T03:18:30.488Z,42.77
2023-02-11T03:21:01.033Z,44.73
2023-02-11T03:23:34.205Z,41.33
2023-02-11T03:26:09.337Z,49.33
2023-02-11T03:28:44.071Z,46.60
2023-02-11T03:31:16.948Z,44.00
2023-02-11T03:33:53.081Z,44.63
2023-02-11T03:36:28.203Z,47.23
2023-02-11T03:38:59.547Z,51.17
2023-02-11T03:41:27.588Z,46.80
2023-02-11T03:43:58.126Z,50.90
2023-02-11T03:46:31.577Z,43.63
2023-02-11T03:49:04.442Z,45.17
2023-02-11T03:51:35.755Z,48.43
2023-02-11T03:54:09.943Z,43.43
2023-02-11T03:56:45.914Z,49.37
2023-02-11T03:59:13.882Z,42.60
2023-02-11T04:01:42.253Z,45.17
2023-02-11T04:04:10.328Z,41.33
2023-02-11T04:06:39.849Z,43.07
2023-02-11T04:09:07.868Z,44.10
2023-02-11T04:11:36.024Z,50.53
2023-02-11T04:14:03.991Z,50.33
2023-02-11T04:16:31.957Z,39.77
2023-02-11T04:19:00.753Z,43.83
2023-02-11T04:21:28.653Z,43.70
2023-02-11T04:23:57.918Z,45.50
2023-02-11T04:26:25.873Z,43.67
2023-02-11T04:28:53.788Z,46.20
2023-02-11T04:31:21.850Z,44.67
2023-02-11T04:33:49.923Z,41.20
2023-02-11T04:36:17.965Z,45.60
2023-02-11T04:38:45.913Z,45.13
2023-02-11T04:41:15.628Z,39.27
2023-02-11T04:43:43.586Z,38.93
2023-02-11T04:46:11.565Z,45.33
2023-02-11T04:48:39.531Z,37.77
2023-02-11T04:51:07.644Z,47.80
2023-02-11T04:53:35.592Z,40.23
2023-02-11T04:56:03.532Z,42.03
2023-02-11T04:58:32.841Z,43.53
2023-02-11T05:01:07.194Z,48.73
2023-02-11T05:03:35.333Z,43.90
2023-02-11T05:06:03.440Z,37.10
2023-02-11T05:08:31.579Z,46.50
2023-02-11T05:10:59.556Z,45.30
2023-02-11T05:13:27.435Z,41.27
2023-02-11T05:15:56.854Z,34.60
2023-02-11T05:18:25.093Z,42.63
2023-02-11T05:20:53.001Z,38.60
2023-02-11T05:23:20.939Z,37.10
2023-02-11T05:25:49.236Z,41.40
2023-02-11T05:28:17.526Z,48.13
2023-02-11T05:30:45.486Z,39.13
2023-02-11T05:33:14.863Z,40.53
2023-02-11T05:35:42.744Z,38.30
2023-02-11T05:38:10.629Z,40.53
2023-02-11T05:40:38.948Z,39.70
2023-02-11T05:43:07.023Z,39.70
2023-02-11T05:45:35.448Z,39.87
2023-02-11T05:48:05.669Z,36.40
2023-02-11T05:50:35.030Z,38.47
2023-02-11T05:53:03.433Z,44.90
2023-02-11T05:55:31.569Z,48.83
2023-02-11T05:57:59.649Z,41.43
2023-02-11T06:00:28.197Z,39.90
2023-02-11T06:02:56.189Z,39.53
2023-02-11T06:05:24.157Z,41.93
2023-02-11T06:07:53.531Z,35.60
2023-02-11T06:10:21.817Z,39.23
2023-02-11T06:12:49.725Z,38.93
2023-02-11T06:15:17.931Z,35.40
2023-02-11T06:17:45.839Z,41.00
2023-02-11T06:20:14.254Z,37.67
2023-02-11T06:22:42.260Z,36.13
2023-02-11T06:25:12.047Z,38.53
2023-02-11T06:27:40.408Z,35.23
2023-02-11T06:30:09.636Z,35.90
2023-02-11T06:32:46.002Z,41.90
2023-02-11T06:35:15.220Z,40.23
2023-02-11T06:37:43.414Z,35.60
2023-02-11T06:40:13.527Z,37.13
2023-02-11T06:42:41.634Z,35.50
2023-02-11T06:45:10.912Z,40.13
2023-02-11T06:47:38.972Z,38.13
2023-02-11T06:50:09.178Z,40.07
2023-02-11T06:52:37.380Z,34.60
2023-02-11T06:55:05.724Z,38.90
2023-02-11T06:57:35.076Z,37.17
2023-02-11T07:00:03.013Z,40.20
2023-02-11T07:02:31.026Z,37.10
2023-02-11T07:04:59.053Z,43.77
2023-02-11T07:07:28.348Z,37.07
2023-02-11T07:09:56.223Z,39.40
2023-02-11T07:12:24.196Z,32.97
2023-02-11T07:14:53.916Z,32.57
2023-02-11T07:17:21.820Z,37.53
2023-02-11T07:19:49.920Z,34.67
2023-02-11T07:22:17.979Z,32.33
2023-02-11T07:24:46.352Z,34.73
2023-02-11T07:27:14.653Z,34.73
2023-02-11T07:29:43.801Z,40.40
2023-02-11T07:32:13.411Z,34.17
2023-02-11T07:34:42.458Z,33.93
2023-02-11T07:37:10.897Z,38.73
2023-02-11T07:39:38.871Z,42.03
2023-02-11T07:42:07.232Z,33.60
2023-02-11T07:44:36.829Z,37.20
2023-02-11T07:47:04.910Z,34.50
2023-02-11T07:49:34.269Z,33.50
2023-02-11T07:52:02.294Z,35.53
2023-02-11T07:54:30.281Z,38.60
2023-02-11T07:56:58.797Z,35.70
2023-02-11T07:59:27.530Z,37.67
2023-02-11T08:01:55.657Z,34.63
2023-02-11T08:04:23.724Z,32.17
2023-02-11T08:06:56.495Z,37.77
2023-02-11T08:09:25.843Z,33.33
2023-02-11T08:11:53.795Z,39.60
2023-02-11T08:14:21.824Z,37.93
2023-02-11T08:16:49.820Z,35.07
2023-02-11T08:19:18.325Z,30.47
2023-02-11T08:21:46.980Z,34.57
2023-02-11T08:24:16.859Z,33.93
2023-02-11T08:26:44.913Z,35.43
2023-02-11T08:29:14.497Z,32.50
2023-02-11T08:31:44.729Z,59.70
2023-02-11T08:34:14.433Z,45.33
2023-02-11T08:36:44.685Z,32.90
2023-02-11T08:39:20.265Z,29.63
2023-02-11T08:41:49.737Z,38.77
2023-02-11T08:44:18.471Z,124.03
2023-02-11T08:46:46.503Z,38.90
2023-02-11T08:49:15.471Z,36.67
2023-02-11T08:51:43.668Z,40.47
2023-02-11T08:54:11.686Z,33.10
2023-02-11T08:56:41.032Z,36.63
2023-02-11T08:59:10.233Z,39.63
2023-02-11T09:01:38.390Z,42.23
2023-02-11T09:04:06.676Z,29.80
2023-02-11T09:06:34.625Z,31.73
2023-02-11T09:09:02.654Z,26.40
2023-02-11T09:11:33.698Z,40.30
2023-02-11T09:14:03.791Z,29.63
2023-02-11T09:16:34.064Z,35.40
2023-02-11T09:19:03.795Z,25.63
2023-02-11T09:21:32.989Z,37.40
2023-02-11T09:24:00.995Z,23.87
2023-02-11T09:26:31.773Z,26.60
2023-02-11T09:29:00.776Z,31.63
2023-02-11T09:31:32.343Z,24.93
2023-02-11T09:34:01.866Z,33.77
2023-02-11T09:36:31.835Z,24.57
2023-02-11T09:39:02.237Z,23.93
2023-02-11T09:42:15.275Z,24.80
2023-02-11T09:44:46.038Z,27.20
2023-02-11T09:47:25.663Z,24.17
2023-02-11T09:49:57.136Z,32.03
2023-02-11T09:52:34.572Z,28.30
2023-02-11T09:55:04.800Z,33.13
2023-02-11T09:57:35.338Z,22.50
2023-02-11T10:00:16.686Z,23.40
2023-02-11T10:03:15.338Z,22.57
2023-02-11T10:05:58.328Z,26.63
2023-02-11T10:08:37.661Z,21.00
2023-02-11T10:11:22.575Z,22.73
2023-02-11T10:14:04.871Z,26.67
2023-02-11T10:16:49.696Z,24.83
2023-02-11T10:19:50.609Z,31.03
2023-02-11T10:22:23.614Z,22.07
2023-02-11T10:24:54.524Z,22.07
2023-02-11T10:27:32.158Z,19.87
2023-02-11T10:30:03.714Z,20.40
2023-02-11T10:32:39.610Z,20.53
2023-02-11T10:35:17.948Z,19.80
2023-02-11T10:37:46.325Z,20.83
2023-02-11T10:40:16.452Z,19.43
2023-02-11T10:42:50.301Z,19.00
2023-02-11T10:45:24.432Z,25.20
2023-02-11T10:47:52.525Z,19.13
2023-02-11T10:50:25.335Z,17.30
2023-02-11T10:52:53.293Z,15.40
2023-02-11T10:55:25.253Z,21.33
2023-02-11T10:57:59.289Z,18.63
2023-02-11T11:00:39.008Z,17.00
2023-02-11T11:03:17.524Z,16.33
2023-02-11T11:05:50.591Z,25.43
2023-02-11T11:08:19.840Z,24.93
2023-02-11T11:10:50.372Z,17.70
2023-02-11T11:13:30.744Z,17.20
2023-02-11T11:16:32.252Z,16.30
2023-02-11T11:19:22.131Z,15.10
2023-02-11T11:21:53.508Z,22.40
2023-02-11T11:24:25.532Z,14.53
2023-02-11T11:26:57.763Z,14.67
2023-02-11T11:29:33.790Z,19.97
2023-02-11T11:32:05.438Z,17.13
2023-02-11T11:34:37.148Z,11.83
2023-02-11T11:37:15.423Z,13.43
2023-02-11T11:39:43.624Z,12.17
2023-02-11T11:42:26.902Z,10.90
2023-02-11T11:45:00.774Z,12.73
2023-02-11T11:47:35.147Z,10.30
2023-02-11T11:50:24.513Z,16.53
2023-02-11T11:53:00.107Z,11.10
2023-02-11T11:55:32.944Z,15.20
2023-02-11T11:58:01.090Z,10.53
2023-02-11T12:00:36.165Z,11.37
2023-02-11T12:03:48.746Z,11.67
2023-02-11T12:06:27.617Z,12.00
2023-02-11T12:09:08.987Z,10.77
2023-02-11T12:11:47.556Z,12.97
2023-02-11T12:14:29.369Z,13.63
2023-02-11T12:17:05.253Z,13.10
2023-02-11T12:19:56.515Z,11.43
2023-02-11T12:22:38.967Z,13.03
2023-02-11T12:25:25.618Z,14.83
2023-02-11T12:28:04.198Z,9.87
2023-02-11T12:31:07.539Z,12.03
2023-02-11T12:33:52.886Z,14.50
2023-02-11T12:36:33.188Z,19.23
2023-02-11T12:39:13.853Z,17.00
2023-02-11T12:42:22.492Z,14.13
2023-02-11T12:45:09.219Z,12.27
2023-02-11T12:47:47.331Z,13.60
2023-02-11T12:50:23.248Z,18.43
2023-02-11T12:53:10.768Z,16.60
2023-02-11T12:55:44.293Z,19.13
2023-02-11T12:58:18.712Z,20.53
2023-02-11T13:00:52.682Z,19.77
2023-02-11T13:03:26.497Z,25.87
2023-02-11T13:05:57.975Z,20.00
2023-02-11T13:08:31.640Z,21.53
2023-02-11T13:11:03.253Z,19.20
2023-02-11T13:13:37.202Z,17.30
2023-02-11T13:16:07.823Z,17.17
2023-02-11T13:18:49.299Z,18.17
2023-02-11T13:21:39.164Z,17.03
2023-02-11T13:24:16.756Z,18.80
2023-02-11T13:26:53.154Z,16.53
2023-02-11T13:29:30.759Z,18.63
2023-02-11T13:32:08.541Z,17.20
2023-02-11T13:34:56.237Z,16.43
2023-02-11T13:37:26.440Z,15.13
2023-02-11T13:39:59.497Z,16.63
2023-02-11T13:42:28.172Z,18.50
2023-02-11T13:44:58.047Z,21.00
2023-02-11T13:47:33.389Z,19.20
2023-02-11T13:50:03.412Z,15.20
2023-02-11T13:52:34.883Z,19.13
2023-02-11T13:55:10.706Z,16.80
2023-02-11T13:57:40.583Z,15.70
2023-02-11T14:00:45.881Z,19.03
2023-02-11T14:03:50.558Z,14.23
2023-02-11T14:06:41.094Z,19.53
2023-02-11T14:09:37.668Z,17.23
2023-02-11T14:12:26.068Z,17.83
2023-02-11T14:15:19.827Z,15.87
2023-02-11T14:17:49.112Z,16.03
2023-02-11T14:20:37.483Z,23.37
2023-02-11T14:23:06.689Z,17.10
2023-02-11T14:25:34.955Z,19.30
2023-02-11T14:28:11.267Z,21.70
2023-02-11T14:31:01.430Z,18.47
2023-02-11T14:34:03.770Z,17.23
2023-02-11T14:37:05.887Z,14.07
2023-02-11T14:39:47.325Z,19.53
2023-02-11T14:42:20.817Z,18.37
2023-02-11T14:44:51.210Z,20.93
2023-02-11T14:47:23.833Z,17.60
2023-02-11T14:49:53.175Z,21.77
2023-02-11T14:52:28.488Z,16.57
2023-02-11T14:55:06.001Z,15.57
2023-02-11T14:57:34.395Z,18.60
2023-02-11T15:00:06.330Z,20.50
2023-02-11T15:02:36.869Z,18.00
2023-02-11T15:05:22.340Z,21.47
2023-02-11T15:07:53.887Z,17.90
2023-02-11T15:10:31.296Z,17.77
2023-02-11T15:13:00.578Z,24.97
2023-02-11T15:15:29.313Z,16.90
2023-02-11T15:18:01.975Z,17.50
2023-02-11T15:20:33.358Z,18.90
2023-02-11T15:23:04.145Z,17.47
2023-02-11T15:25:34.177Z,18.67
2023-02-11T15:28:02.628Z,17.97
2023-02-11T15:30:34.207Z,17.20
2023-02-11T15:33:05.648Z,20.20
2023-02-11T15:35:36.805Z,17.63
2023-02-11T15:38:06.097Z,18.00
2023-02-11T15:40:36.235Z,18.83
2023-02-11T15:43:06.380Z,21.43
2023-02-11T15:45:36.124Z,16.80
2023-02-11T15:48:10.575Z,20.83
2023-02-11T15:50:41.991Z,20.37
2023-02-11T15:53:31.958Z,17.80
2023-02-11T15:56:09.729Z,19.23
2023-02-11T15:58:38.669Z,17.80
2023-02-11T16:01:07.639Z,20.80
2023-02-11T16:03:35.905Z,20.33
2023-02-11T16:06:23.332Z,19.63
2023-02-11T16:09:02.721Z,16.80
2023-02-11T16:11:32.544Z,22.20
2023-02-11T16:14:04.133Z,18.07
2023-02-11T16:16:35.449Z,24.07
2023-02-11T16:19:06.533Z,25.47
2023-02-11T16:21:38.997Z,18.77
2023-02-11T16:24:08.935Z,21.30
2023-02-11T16:26:41.043Z,23.70
2023-02-11T16:29:13.291Z,27.27
2023-02-11T16:31:43.293Z,26.13
2023-02-11T16:34:16.983Z,28.60
2023-02-11T16:36:47.132Z,24.93
2023-02-11T16:39:16.705Z,24.53
2023-02-11T16:41:44.823Z,32.97
2023-02-11T16:44:12.711Z,26.33
2023-02-11T16:46:40.828Z,21.40
2023-02-11T16:49:13.713Z,20.53
2023-02-11T16:51:43.662Z,23.93
2023-02-11T16:54:17.856Z,25.03
2023-02-11T16:56:46.043Z,20.73
2023-02-11T16:59:14.151Z,21.70
2023-02-11T17:01:44.147Z,19.47
2023-02-11T17:04:18.604Z,25.60
2023-02-11T17:06:48.009Z,28.60
2023-02-11T17:09:20.718Z,27.97
2023-02-11T17:11:49.055Z,23.33
2023-02-11T17:14:17.299Z,22.67
2023-02-11T17:16:46.365Z,33.57
2023-02-11T17:19:16.214Z,18.40
2023-02-11T17:21:44.713Z,27.90
2023-02-11T17:24:14.286Z,22.60
2023-02-11T17:26:44.025Z,19.20
2023-02-11T17:29:14.053Z,17.60
2023-02-11T17:31:42.581Z,21.80
2023-02-11T17:34:11.030Z,19.07
2023-02-11T17:36:41.228Z,23.20
2023-02-11T17:39:09.820Z,21.80
2023-02-11T17:41:38.201Z,28.33
2023-02-11T17:44:08.367Z,25.13
2023-02-11T17:46:36.568Z,21.13
2023-02-11T17:49:05.274Z,20.43
2023-02-11T17:51:35.189Z,25.57
2023-02-11T17:54:05.349Z,22.00
2023-02-11T17:56:35.306Z,21.73
2023-02-11T17:59:04.156Z,19.00
2023-02-11T18:01:35.392Z,21.10
2023-02-11T18:04:04.218Z,20.97
2023-02-11T18:06:33.708Z,24.67
2023-02-11T18:09:04.149Z,28.50
2023-02-11T18:11:34.862Z,19.33
2023-02-11T18:14:04.589Z,21.27
2023-02-11T18:16:35.231Z,21.23
2023-02-11T18:19:03.741Z,22.67
2023-02-11T18:21:32.180Z,23.17
2023-02-11T18:24:05.996Z,21.00
2023-02-11T18:26:34.948Z,22.20
2023-02-11T18:29:03.771Z,21.87
2023-02-11T18:31:35.172Z,24.40
2023-02-11T18:34:03.637Z,25.83
2023-02-11T18:36:32.308Z,22.37
2023-02-11T18:39:00.593Z,24.27
2023-02-11T18:41:28.889Z,25.63
2023-02-11T18:44:02.609Z,24.07
2023-02-11T18:46:31.298Z,28.13
2023-02-11T18:49:00.925Z,24.30
2023-02-11T18:51:31.789Z,26.23
2023-02-11T18:54:01.105Z,25.97
2023-02-11T18:56:29.550Z,28.37
2023-02-11T18:59:01.105Z,23.80
2023-02-11T19:01:30.965Z,22.93
2023-02-11T19:04:02.820Z,21.90
2023-02-11T19:06:36.241Z,23.97
2023-02-11T19:09:11.308Z,24.53
2023-02-11T19:11:58.106Z,22.47
2023-02-11T19:14:28.437Z,20.27
2023-02-11T19:16:58.672Z,21.00
2023-02-11T19:19:29.901Z,21.50
2023-02-11T19:21:58.765Z,25.53
2023-02-11T19:24:27.683Z,20.33
2023-02-11T19:26:58.315Z,22.43
2023-02-11T19:29:26.428Z,22.30
2023-02-11T19:31:54.679Z,26.97
2023-02-11T19:34:23.170Z,23.10
2023-02-11T19:36:54.107Z,19.47
2023-02-11T19:39:24.001Z,17.53
2023-02-11T19:41:51.925Z,23.57
2023-02-11T19:44:20.675Z,27.93
2023-02-11T19:46:50.197Z,20.30
2023-02-11T19:49:22.844Z,24.47
2023-02-11T19:51:52.780Z,23.43
2023-02-11T19:54:21.443Z,23.20
2023-02-11T19:56:49.947Z,18.80
2023-02-11T19:59:17.891Z,27.53
2023-02-11T20:01:47.753Z,23.63
2023-02-11T20:04:15.954Z,26.87
2023-02-11T20:06:43.897Z,21.27
2023-02-11T20:09:15.316Z,23.13
2023-02-11T20:11:43.996Z,21.37
2023-02-11T20:14:14.755Z,20.70
2023-02-11T20:16:49.258Z,19.93
2023-02-11T20:19:19.452Z,24.93
2023-02-11T20:21:50.076Z,25.10
2023-02-11T20:24:20.798Z,19.83
2023-02-11T20:26:49.232Z,20.07
2023-02-11T20:29:18.234Z,20.87
2023-02-11T20:31:46.681Z,24.83
2023-02-11T20:34:17.432Z,23.57
2023-02-11T20:36:51.398Z,22.10
2023-02-11T20:39:22.402Z,23.70
2023-02-11T20:41:51.272Z,22.80
2023-02-11T20:44:19.308Z,23.73
2023-02-11T20:46:47.605Z,20.80
2023-02-11T20:49:18.692Z,24.80
2023-02-11T20:51:47.006Z,21.83
2023-02-11T20:54:17.114Z,21.33
2023-02-11T20:56:48.256Z,23.80
2023-02-11T20:59:17.188Z,23.33
2023-02-11T21:01:46.952Z,24.57
2023-02-11T21:04:16.639Z,20.00
2023-02-11T21:06:47.143Z,24.83
2023-02-11T21:09:19.566Z,23.07
2023-02-11T21:11:51.485Z,29.20
2023-02-11T21:14:20.305Z,22.90
2023-02-11T21:16:48.614Z,22.50
2023-02-11T21:19:17.288Z,26.50
2023-02-11T21:21:45.278Z,24.63
2023-02-11T21:24:13.657Z,24.60
2023-02-11T21:26:41.587Z,26.10
2023-02-11T21:29:11.580Z,28.67
2023-02-11T21:31:39.795Z,24.63
2023-02-11T21:34:08.166Z,25.30
2023-02-11T21:36:36.271Z,26.53
2023-02-11T21:39:05.831Z,27.50
2023-02-11T21:41:34.044Z,26.33
2023-02-11T21:44:02.064Z,25.43
2023-02-11T21:46:32.008Z,23.10
2023-02-11T21:49:00.367Z,30.77
2023-02-11T21:51:28.518Z,24.60
2023-02-11T21:53:58.216Z,28.27
2023-02-11T21:56:27.978Z,28.67
2023-02-11T21:58:58.289Z,30.40
2023-02-11T22:01:28.352Z,32.37
2023-02-11T22:03:57.915Z,26.20
2023-02-11T22:06:27.533Z,33.27
2023-02-11T22:08:56.299Z,30.80
2023-02-11T22:11:25.110Z,23.07
2023-02-11T22:13:54.795Z,26.50
2023-02-11T22:16:23.183Z,31.53
2023-02-11T22:18:51.437Z,29.70
2023-02-11T22:21:22.482Z,26.33
2023-02-11T22:23:50.940Z,29.73
2023-02-11T22:26:21.664Z,28.67
2023-02-11T22:28:50.689Z,30.30
2023-02-11T22:31:20.989Z,30.93
2023-02-11T22:33:49.882Z,31.70
2023-02-11T22:36:21.518Z,29.43
2023-02-11T22:38:49.859Z,33.40
2023-02-11T22:41:18.304Z,34.83
2023-02-11T22:43:46.570Z,34.30
2023-02-11T22:46:15.948Z,32.77
2023-02-11T22:48:44.033Z,31.50
2023-02-11T22:51:13.832Z,31.43
2023-02-11T22:53:43.564Z,32.70
2023-02-11T22:56:15.368Z,29.73
2023-02-11T22:58:44.233Z,31.17
2023-02-11T23:01:12.806Z,31.30
2023-02-11T23:03:40.840Z,31.50
2023-02-11T23:06:09.656Z,34.40
2023-02-11T23:08:39.467Z,34.60
2023-02-11T23:11:10.591Z,30.70
2023-02-11T23:13:40.885Z,33.00
2023-02-11T23:16:11.140Z,35.23
2023-02-11T23:18:41.243Z,33.77
2023-02-11T23:21:12.506Z,28.67
2023-02-11T23:23:41.130Z,30.40
2023-02-11T23:26:13.227Z,31.03
2023-02-11T23:28:41.514Z,29.57
2023-02-11T23:31:17.689Z,30.17
2023-02-11T23:33:45.822Z,34.37
2023-02-11T23:36:14.064Z,35.40
2023-02-11T23:38:42.023Z,35.70
2023-02-11T23:41:11.758Z,37.07
2023-02-11T23:43:39.984Z,33.30
2023-02-11T23:46:09.248Z,34.77
2023-02-11T23:48:37.672Z,36.17
2023-02-11T23:51:06.414Z,35.13
2023-02-11T23:53:34.330Z,33.43
2023-02-11T23:56:02.247Z,39.93
2023-02-11T23:58:31.622Z,38.20
